Time;durP1;ratioP1;P1;durP2;ratioP2;P2;SDS_P1;SDS_P2;PMS_P1;PMS_P2;Temp;Humidity;BMP_temperature;BMP_pressure;BME280_temperature;BME280_humidity;BME280_pressure;Samples;Min_cycle;Max_cycle;Signal;HPM_P1;HPM_P2
2024/02/25 00:02:14;;;;;;;3.00;1.03;;;;;;;5.35;84.66;100214.66;5053534;28;20517;-67
2024/02/25 00:04:40;;;;;;;4.73;1.10;;;;;;;5.29;84.81;100215.78;5053245;28;20545;-67
2024/02/25 00:07:07;;;;;;;3.43;1.30;;;;;;;5.23;84.92;100220.38;5052845;28;20852;-67
2024/02/25 00:09:34;;;;;;;2.23;1.00;;;;;;;5.23;85.26;100231.13;5053300;28;20869;-68
2024/02/25 00:12:00;;;;;;;4.00;1.40;;;;;;;5.17;84.78;100224.13;5053203;28;20612;-68
2024/02/25 00:14:29;;;;;;;4.00;1.03;;;;;;;5.10;85.15;100225.53;5053409;28;20437;-68
2024/02/25 00:16:56;;;;;;;9.53;2.50;;;;;;;5.07;85.04;100233.03;5053643;28;20446;-68
2024/02/25 00:19:24;;;;;;;2.67;0.90;;;;;;;5.06;85.54;100227.94;5053482;28;20537;-68
2024/02/25 00:21:50;;;;;;;2.20;0.80;;;;;;;5.10;86.24;100233.56;5053017;28;21025;-68
2024/02/25 00:24:19;;;;;;;2.67;1.20;;;;;;;5.11;87.28;100229.81;5052656;28;20481;-68
2024/02/25 00:26:46;;;;;;;5.50;0.97;;;;;;;5.13;88.03;100230.31;5052868;28;20482;-68
2024/02/25 00:29:14;;;;;;;4.80;1.63;;;;;;;5.12;88.49;100228.72;5055255;28;20438;-68
2024/02/25 00:31:41;;;;;;;2.53;0.77;;;;;;;5.15;88.59;100234.34;5056784;28;20488;-68
2024/02/25 00:34:08;;;;;;;4.07;1.47;;;;;;;5.15;88.92;100229.00;5056753;28;20523;-68
2024/02/25 00:36:36;;;;;;;1.90;0.80;;;;;;;5.10;89.27;100230.91;5056435;28;20434;-68
2024/02/25 00:39:03;;;;;;;5.47;1.50;;;;;;;5.05;89.97;100243.25;5056686;28;20477;-68
2024/02/25 00:41:30;;;;;;;2.00;0.80;;;;;;;5.03;89.82;100239.22;5057305;28;20800;-68
2024/02/25 00:43:56;;;;;;;3.47;0.83;;;;;;;5.01;89.92;100244.06;5056548;28;20462;-68
2024/02/25 00:46:23;;;;;;;2.30;1.07;;;;;;;5.00;89.50;100245.94;5056112;28;20576;-68
2024/02/25 00:48:49;;;;;;;3.20;1.13;;;;;;;5.01;89.25;100244.06;5056601;28;20537;-67
2024/02/25 00:51:16;;;;;;;3.20;0.67;;;;;;;5.08;88.98;100249.94;5056389;28;20509;-67
2024/02/25 00:53:44;;;;;;;1.70;0.60;;;;;;;5.13;88.67;100247.22;5056257;28;20553;-66
2024/02/25 00:56:11;;;;;;;3.40;1.37;;;;;;;5.18;87.40;100243.72;5056562;28;20440;-67
2024/02/25 00:58:38;;;;;;;2.37;0.93;;;;;;;5.17;86.03;100245.63;5056006;28;20934;-67
2024/02/25 01:01:05;;;;;;;4.13;1.53;;;;;;;5.15;84.99;100249.66;5056510;28;20461;-67
2024/02/25 01:03:33;;;;;;;2.40;0.77;;;;;;;5.14;84.44;100238.13;5056167;28;20532;-67
2024/02/25 01:06:00;;;;;;;2.37;0.70;;;;;;;5.15;84.36;100234.34;5056628;28;20481;-67
2024/02/25 01:08:26;;;;;;;3.40;0.93;;;;;;;5.12;82.81;100223.34;5056474;28;20449;-67
2024/02/25 01:10:54;;;;;;;1.97;0.73;;;;;;;5.10;83.26;100230.91;5056069;28;20439;-67
2024/02/25 01:13:23;;;;;;;2.87;1.00;;;;;;;5.05;82.50;100235.19;5056032;28;20545;-67
2024/02/25 01:15:50;;;;;;;2.27;0.70;;;;;;;5.01;83.33;100236.81;5056095;28;20444;-67
2024/02/25 01:18:17;;;;;;;2.43;1.10;;;;;;;5.02;83.60;100234.94;5056087;28;20438;-67
2024/02/25 01:20:43;;;;;;;2.33;1.00;;;;;;;4.99;83.56;100236.28;5055874;28;20529;-67
2024/02/25 01:23:10;;;;;;;2.20;0.73;;;;;;;4.99;83.50;100236.28;5055842;28;20494;-67
2024/02/25 01:25:36;;;;;;;2.20;0.83;;;;;;;4.95;83.41;100240.56;5055507;28;20438;-67
2024/02/25 01:28:05;;;;;;;2.60;1.00;;;;;;;4.97;83.92;100234.94;5055385;28;20518;-67
2024/02/25 01:30:32;;;;;;;1.80;0.73;;;;;;;5.02;84.20;100234.94;5056068;28;20525;-67
2024/02/25 01:32:58;;;;;;;2.00;0.80;;;;;;;4.98;85.25;100233.88;5055310;28;20541;-67
2024/02/25 01:35:25;;;;;;;1.90;0.77;;;;;;;4.97;85.29;100233.06;5055679;28;20877;-67
2024/02/25 01:37:51;;;;;;;3.40;0.90;;;;;;;4.96;86.51;100241.41;5055762;28;20804;-67
2024/02/25 01:40:18;;;;;;;3.47;2.07;;;;;;;4.99;86.43;100230.91;5055026;28;20474;-67
2024/02/25 01:42:45;;;;;;;2.13;0.77;;;;;;;5.01;86.47;100231.44;5055441;28;20905;-67
2024/02/25 01:45:14;;;;;;;1.50;0.40;;;;;;;4.98;86.45;100234.66;5055415;28;20434;-67
2024/02/25 01:47:41;;;;;;;1.80;0.60;;;;;;;4.93;86.92;100225.84;5055333;28;20489;-67
2024/02/25 01:50:08;;;;;;;2.00;0.93;;;;;;;4.88;87.18;100231.22;5055374;28;20441;-67
2024/02/25 01:52:35;;;;;;;1.70;0.60;;;;;;;4.86;87.51;100225.31;5055077;28;20577;-67
2024/02/25 01:55:02;;;;;;;2.70;1.03;;;;;;;4.75;88.16;100224.53;5054974;28;20438;-67
2024/02/25 01:57:29;;;;;;;2.20;1.00;;;;;;;4.66;88.58;100224.28;5054903;28;21025;-67
2024/02/25 01:59:56;;;;;;;2.67;0.80;;;;;;;4.63;89.17;100224.81;5054895;28;20930;-67
2024/02/25 02:02:24;;;;;;;1.90;0.73;;;;;;;4.53;89.73;100222.94;5054714;28;20927;-67
2024/02/25 02:04:51;;;;;;;1.67;0.50;;;;;;;4.49;90.31;100218.38;5055380;28;20438;-67
2024/02/25 02:07:18;;;;;;;3.13;1.43;;;;;;;4.49;90.45;100221.06;5055264;28;20578;-67
2024/02/25 02:09:45;;;;;;;2.10;1.07;;;;;;;4.46;90.12;100221.59;5054957;28;20762;-67
2024/02/25 02:12:12;;;;;;;1.90;0.70;;;;;;;4.39;88.72;100226.44;5055159;28;20502;-67
2024/02/25 02:14:38;;;;;;;3.60;1.50;;;;;;;4.34;88.55;100219.22;5055216;28;20444;-67
2024/02/25 02:17:06;;;;;;;2.60;1.13;;;;;;;4.35;88.89;100223.50;5054784;28;20537;-67
2024/02/25 02:19:34;;;;;;;2.37;0.97;;;;;;;4.35;88.51;100214.66;5055134;28;20473;-67
2024/02/25 02:22:02;;;;;;;1.70;0.40;;;;;;;4.34;88.65;100211.16;5054757;28;20517;-67
2024/02/25 02:24:28;;;;;;;2.97;1.70;;;;;;;4.30;88.78;100218.13;5054418;28;20525;-67
2024/02/25 02:26:55;;;;;;;3.20;0.80;;;;;;;4.34;88.64;100210.34;5055136;28;20560;-67
2024/02/25 02:29:21;;;;;;;1.87;0.70;;;;;;;4.30;88.96;100208.22;5054527;28;20442;-67
2024/02/25 02:31:49;;;;;;;3.30;0.80;;;;;;;4.35;88.94;100210.09;5055464;28;20517;-67
2024/02/25 02:34:15;;;;;;;3.37;1.20;;;;;;;4.41;89.31;100213.56;5055072;28;20446;-67
2024/02/25 02:36:42;;;;;;;2.37;1.13;;;;;;;4.41;89.15;100213.56;5054834;28;20500;-67
2024/02/25 02:39:48;;;;;;;2.80;0.57;;;;;;;4.45;88.69;100217.31;5054467;28;20448;-67
2024/02/25 02:42:16;;;;;;;2.10;0.70;;;;;;;4.50;88.62;100217.31;5054116;28;20462;-67
2024/02/25 02:44:45;;;;;;;1.80;0.60;;;;;;;4.48;89.50;100204.19;5054891;28;20530;-67
2024/02/25 02:47:12;;;;;;;2.73;1.27;;;;;;;4.52;89.50;100209.81;5054385;28;20482;-67
2024/02/25 02:49:39;;;;;;;2.20;1.00;;;;;;;4.54;90.10;100211.13;5054391;28;20525;-67
2024/02/25 02:52:06;;;;;;;2.13;0.70;;;;;;;4.55;90.28;100214.63;5053504;28;20839;-67
2024/02/25 02:54:33;;;;;;;1.70;0.60;;;;;;;4.49;90.81;100207.66;5054414;28;20465;-67
2024/02/25 02:56:59;;;;;;;2.77;1.23;;;;;;;4.43;90.62;100201.50;5054345;28;20470;-67
2024/02/25 02:59:27;;;;;;;2.20;0.90;;;;;;;4.42;91.14;100205.25;5054002;28;20529;-67
2024/02/25 03:01:54;;;;;;;2.23;1.03;;;;;;;4.45;90.80;100202.03;5054572;28;20461;-67
2024/02/25 03:04:22;;;;;;;2.80;1.40;;;;;;;4.35;91.73;100201.25;5054195;28;20465;-67
2024/02/25 03:06:49;;;;;;;2.30;0.93;;;;;;;4.26;92.29;100195.63;5054071;28;20532;-67
2024/02/25 03:09:15;;;;;;;1.80;0.70;;;;;;;4.25;91.98;100197.50;5053953;28;21065;-66
2024/02/25 03:11:42;;;;;;;2.50;1.10;;;;;;;4.22;92.15;100194.53;5054502;28;20470;-66
2024/02/25 03:14:08;;;;;;;2.07;1.20;;;;;;;4.09;92.49;100198.56;5054204;28;20440;-66
2024/02/25 03:16:39;;;;;;;2.67;1.03;;;;;;;4.04;93.21;100193.19;5054247;28;20434;-67
2024/02/25 03:19:05;;;;;;;2.33;0.80;;;;;;;4.04;93.05;100198.56;5054011;28;20514;-67
2024/02/25 03:21:32;;;;;;;2.27;1.07;;;;;;;3.94;93.08;100187.81;5054437;28;20934;-67
2024/02/25 03:23:58;;;;;;;3.07;1.03;;;;;;;3.90;93.36;100187.56;5054668;28;20522;-67
2024/02/25 03:26:25;;;;;;;2.67;0.97;;;;;;;3.86;93.30;100181.13;5054208;28;20454;-67
2024/02/25 03:28:52;;;;;;;3.70;1.53;;;;;;;3.84;93.11;100183.25;5054081;28;20438;-67
2024/02/25 03:31:18;;;;;;;1.93;0.77;;;;;;;3.77;92.92;100186.19;5054474;28;20511;-66
2024/02/25 03:33:46;;;;;;;2.17;0.83;;;;;;;3.70;92.38;100196.34;5053980;28;20486;-68
2024/02/25 03:36:13;;;;;;;1.70;0.50;;;;;;;3.63;92.14;100190.47;5053902;28;20521;-69
2024/02/25 03:38:41;;;;;;;17.40;0.87;;;;;;;3.58;92.00;100193.09;5053823;28;20514;-67
2024/02/25 03:41:08;;;;;;;2.10;0.70;;;;;;;3.47;92.52;100184.25;5053765;28;20468;-67
2024/02/25 03:43:35;;;;;;;2.67;1.00;;;;;;;3.41;92.61;100179.97;5053618;28;20543;-67
2024/02/25 03:46:01;;;;;;;1.73;0.60;;;;;;;3.33;92.34;100182.34;5053682;28;20885;-67
2024/02/25 03:48:28;;;;;;;1.80;0.60;;;;;;;3.32;92.52;100180.72;5053864;28;20569;-67
2024/02/25 03:50:56;;;;;;;1.77;0.63;;;;;;;3.27;92.59;100179.63;5053768;28;20529;-67
2024/02/25 03:53:22;;;;;;;3.27;1.13;;;;;;;3.25;92.76;100181.78;5053265;28;20978;-67
2024/02/25 03:55:49;;;;;;;2.10;0.60;;;;;;;3.25;93.16;100180.97;5053538;28;20440;-67
2024/02/25 03:58:16;;;;;;;1.90;0.70;;;;;;;3.19;92.87;100177.47;5053797;28;20793;-67
2024/02/25 04:00:43;;;;;;;3.30;1.00;;;;;;;3.06;92.16;100172.63;5053739;28;20500;-67
2024/02/25 04:03:09;;;;;;;2.47;1.00;;;;;;;2.92;93.00;100174.13;5053973;28;20530;-67
2024/02/25 04:05:36;;;;;;;1.93;0.80;;;;;;;2.97;92.59;100172.31;5057484;28;20796;-67
2024/02/25 04:08:04;;;;;;;2.00;0.60;;;;;;;2.93;92.54;100173.09;5057487;28;20488;-67
2024/02/25 04:10:31;;;;;;;1.90;0.70;;;;;;;2.92;93.42;100171.47;5057444;28;20525;-67
2024/02/25 04:12:57;;;;;;;1.90;0.70;;;;;;;2.93;94.09;100170.41;5057413;28;20545;-67
2024/02/25 04:15:24;;;;;;;2.30;0.90;;;;;;;2.93;94.63;100173.88;5057835;28;20473;-67
2024/02/25 04:17:51;;;;;;;2.30;0.70;;;;;;;2.86;95.06;100169.84;5057957;28;20434;-67
2024/02/25 04:20:18;;;;;;;2.10;0.67;;;;;;;2.80;94.99;100174.34;5057242;28;20462;-67
2024/02/25 04:22:44;;;;;;;1.90;0.70;;;;;;;2.82;95.19;100174.09;5056981;28;20458;-67
2024/02/25 04:25:12;;;;;;;3.43;1.03;;;;;;;2.77;94.93;100172.19;5057526;28;20518;-67
2024/02/25 04:27:39;;;;;;;1.90;0.60;;;;;;;2.72;95.62;100182.88;5056896;28;20477;-66
2024/02/25 04:30:06;;;;;;;2.03;0.80;;;;;;;2.68;96.11;100187.91;5057248;28;20589;-67
2024/02/25 04:32:39;;;;;;;1.90;0.70;;;;;;;2.65;96.58;100175.06;5056432;28;20541;-67
2024/02/25 04:35:06;;;;;;;3.07;1.40;;;;;;;2.64;97.47;100170.78;5056523;28;20425;-67
2024/02/25 04:37:33;;;;;;;4.63;1.97;;;;;;;2.67;97.94;100172.94;5056438;28;20914;-67
2024/02/25 04:39:59;;;;;;;2.10;0.70;;;;;;;2.69;98.33;100173.47;5056647;28;20440;-67
2024/02/25 04:42:27;;;;;;;2.20;0.80;;;;;;;2.74;98.63;100178.84;5056569;28;20486;-67
2024/02/25 04:44:54;;;;;;;1.93;0.60;;;;;;;2.72;98.07;100189.03;5056244;28;20931;-67
2024/02/25 04:47:20;;;;;;;2.07;0.63;;;;;;;2.81;97.90;100188.53;5056540;28;20567;-67
2024/02/25 04:49:47;;;;;;;2.67;1.27;;;;;;;2.84;97.86;100186.16;5056539;28;20930;-67
2024/02/25 04:52:14;;;;;;;2.10;0.77;;;;;;;2.89;98.37;100182.69;5056417;28;20489;-67
2024/02/25 04:54:43;;;;;;;1.77;0.57;;;;;;;2.94;98.25;100185.41;5056516;28;20422;-67
2024/02/25 04:57:09;;;;;;;2.10;0.67;;;;;;;3.00;98.29;100185.13;5056707;28;20803;-67
2024/02/25 04:59:37;;;;;;;3.00;0.97;;;;;;;3.02;98.20;100180.34;5056009;28;20469;-67
2024/02/25 05:02:04;;;;;;;2.33;0.80;;;;;;;3.08;97.69;100186.53;5056598;28;20557;-67
2024/02/25 05:04:31;;;;;;;2.20;0.80;;;;;;;3.10;97.33;100192.44;5056229;28;20447;-67
2024/02/25 05:06:57;;;;;;;2.50;1.40;;;;;;;3.04;96.92;100190.78;5056083;28;20504;-67
2024/02/25 05:09:24;;;;;;;1.80;0.60;;;;;;;3.06;96.85;100198.56;5055840;28;20884;-67
2024/02/25 05:11:51;;;;;;;3.20;1.10;;;;;;;2.96;96.54;100191.28;5056386;28;20440;-67
2024/02/25 05:14:18;;;;;;;2.17;0.70;;;;;;;2.97;96.16;100192.91;5055600;28;20504;-67
2024/02/25 05:16:47;;;;;;;2.03;1.03;;;;;;;2.92;95.43;100187.50;5056339;28;20442;-67
2024/02/25 05:19:14;;;;;;;2.10;1.10;;;;;;;2.92;95.68;100188.34;5056125;28;20442;-67
2024/02/25 05:21:41;;;;;;;2.20;1.10;;;;;;;2.94;96.08;100182.72;5055992;28;20438;-67
2024/02/25 05:24:07;;;;;;;2.77;1.27;;;;;;;2.94;96.90;100185.41;5055761;28;20453;-67
2024/02/25 05:26:34;;;;;;;2.40;0.80;;;;;;;2.92;97.40;100184.84;5055943;28;20446;-67
2024/02/25 05:29:01;;;;;;;1.80;0.63;;;;;;;2.96;97.34;100189.41;5055980;28;20914;-67
2024/02/25 05:31:28;;;;;;;2.77;1.20;;;;;;;2.96;97.29;100184.06;5055866;28;20525;-67
2024/02/25 05:33:55;;;;;;;2.27;0.97;;;;;;;2.90;97.91;100178.94;5055288;28;20458;-67
2024/02/25 05:36:23;;;;;;;3.93;0.97;;;;;;;2.89;98.89;100182.69;5055578;28;20481;-67
2024/02/25 05:38:50;;;;;;;2.07;1.07;;;;;;;2.86;99.12;100183.22;5055528;28;20472;-67
2024/02/25 05:41:16;;;;;;;2.07;0.60;;;;;;;2.84;99.05;100185.34;5055604;28;20442;-67
2024/02/25 05:43:44;;;;;;;1.80;0.77;;;;;;;2.83;98.97;100176.50;5055433;28;20461;-67
2024/02/25 05:46:11;;;;;;;2.30;1.07;;;;;;;2.74;99.84;100191.41;5055532;28;20469;-67
2024/02/25 05:48:39;;;;;;;2.00;0.77;;;;;;;2.68;99.99;100187.13;5055416;28;20532;-67
2024/02/25 05:51:07;;;;;;;2.33;0.70;;;;;;;2.68;99.51;100189.78;5055405;28;20450;-67
2024/02/25 05:53:33;;;;;;;2.53;1.07;;;;;;;2.61;100.00;100192.72;5054930;28;20477;-67
2024/02/25 05:56:00;;;;;;;3.90;1.20;;;;;;;2.53;99.20;100190.50;5055006;28;20443;-67
2024/02/25 05:58:29;;;;;;;2.10;0.67;;;;;;;2.49;99.01;100187.53;5055200;28;20434;-67
2024/02/25 06:00:55;;;;;;;2.20;0.90;;;;;;;2.44;97.76;100198.19;5054861;28;21007;-67
2024/02/25 06:03:22;;;;;;;2.53;0.90;;;;;;;2.40;96.80;100188.28;5055075;28;20473;-67
2024/02/25 06:05:48;;;;;;;2.67;0.60;;;;;;;2.45;96.55;100190.97;5055428;28;20517;-67
2024/02/25 06:08:16;;;;;;;2.20;0.80;;;;;;;2.43;96.49;100195.75;5054853;28;20482;-67
2024/02/25 06:10:43;;;;;;;3.50;0.77;;;;;;;2.39;96.00;100186.66;5054997;28;20474;-67
2024/02/25 06:13:10;;;;;;;2.63;1.37;;;;;;;2.39;96.34;100202.69;5054599;28;20473;-67
2024/02/25 06:15:36;;;;;;;2.17;0.97;;;;;;;2.29;96.77;100206.09;5055366;28;20476;-67
2024/02/25 06:18:03;;;;;;;3.40;0.60;;;;;;;2.33;96.77;100206.38;5054840;28;20438;-67
2024/02/25 06:20:30;;;;;;;4.10;1.50;;;;;;;2.26;96.02;100202.09;5055088;28;20853;-67
2024/02/25 06:22:57;;;;;;;5.00;1.50;;;;;;;2.19;96.92;100198.81;5054203;28;20520;-67
2024/02/25 06:25:25;;;;;;;4.13;1.73;;;;;;;2.26;97.73;100186.03;5054570;28;20476;-68
2024/02/25 06:27:51;;;;;;;9.90;2.53;;;;;;;2.26;97.90;100195.94;5054029;28;20514;-68
2024/02/25 06:30:18;;;;;;;4.50;2.20;;;;;;;2.30;98.45;100191.66;5054879;28;20449;-68
2024/02/25 06:32:45;;;;;;;1.90;0.73;;;;;;;2.41;100.00;100189.88;5054486;28;20454;-67
2024/02/25 06:35:12;;;;;;;5.70;1.67;;;;;;;2.57;100.00;100180.09;5054178;28;20478;-67
2024/02/25 06:37:39;;;;;;;3.20;1.70;;;;;;;2.67;100.00;100186.31;5054830;28;20438;-67
2024/02/25 06:40:08;;;;;;;16.97;2.77;;;;;;;2.76;100.00;100184.75;5054419;28;20472;-67
2024/02/25 06:42:36;;;;;;;6.43;1.77;;;;;;;2.83;100.00;100183.72;5054011;28;20505;-68
2024/02/25 06:45:04;;;;;;;1.90;0.80;;;;;;;2.90;100.00;100192.31;5054565;28;20446;-67
2024/02/25 06:47:30;;;;;;;3.70;0.80;;;;;;;2.95;100.00;100187.00;5054159;28;20438;-68
2024/02/25 06:49:57;;;;;;;4.00;1.73;;;;;;;2.98;100.00;100179.25;5054436;28;20470;-67
2024/02/25 06:52:23;;;;;;;6.93;1.50;;;;;;;3.02;100.00;100187.56;5053935;28;20478;-67
2024/02/25 06:54:52;;;;;;;4.50;2.60;;;;;;;3.05;100.00;100192.38;5055403;22;20502;-67
2024/02/25 06:57:19;;;;;;;2.57;0.90;;;;;;;3.01;100.00;100189.44;5033771;28;20450;-66
2024/02/25 06:59:47;;;;;;;2.50;1.10;;;;;;;3.04;100.00;100180.09;5033970;28;20478;-69
2024/02/25 07:02:14;;;;;;;8.07;2.03;;;;;;;3.04;100.00;100191.59;5034240;28;20467;-68
2024/02/25 07:04:40;;;;;;;1.70;0.50;;;;;;;3.03;100.00;100195.34;5034091;28;20439;-67
2024/02/25 07:07:07;;;;;;;10.33;2.50;;;;;;;3.06;100.00;100194.03;5034113;28;20482;-67
2024/02/25 07:09:33;;;;;;;2.50;0.90;;;;;;;3.13;100.00;100202.59;5033885;28;20570;-67
2024/02/25 07:12:00;;;;;;;2.70;1.37;;;;;;;3.14;100.00;100200.72;5034267;28;20884;-67
2024/02/25 07:14:28;;;;;;;3.30;1.07;;;;;;;3.20;100.00;100195.16;5033945;28;20510;-67
2024/02/25 07:16:56;;;;;;;2.97;1.30;;;;;;;3.23;100.00;100199.16;5033916;28;20450;-68
2024/02/25 07:19:22;;;;;;;2.87;1.00;;;;;;;3.28;100.00;100197.31;5033905;28;20435;-68
2024/02/25 07:21:49;;;;;;;2.10;0.90;;;;;;;3.38;100.00;100190.38;5034093;28;20474;-68
2024/02/25 07:24:16;;;;;;;3.03;1.07;;;;;;;3.39;100.00;100195.47;5034164;28;20465;-68
2024/02/25 07:26:43;;;;;;;2.17;0.80;;;;;;;3.48;100.00;100201.91;5034147;28;20858;-68
2024/02/25 07:29:09;;;;;;;2.10;0.70;;;;;;;3.53;100.00;100204.59;5033657;28;20495;-68
2024/02/25 07:31:36;;;;;;;2.43;0.97;;;;;;;3.60;100.00;100188.31;5033554;28;20443;-68
2024/02/25 07:34:04;;;;;;;1.90;0.80;;;;;;;3.72;100.00;100201.47;5033781;28;20441;-68
2024/02/25 07:36:30;;;;;;;2.50;1.53;;;;;;;3.74;100.00;100191.28;5033525;28;20439;-68
2024/02/25 07:38:57;;;;;;;2.50;1.70;;;;;;;3.81;100.00;100199.88;5032679;28;20443;-66
2024/02/25 07:41:24;;;;;;;5.10;1.60;;;;;;;3.85;100.00;100200.13;5033919;28;20541;-67
2024/02/25 07:43:50;;;;;;;5.00;1.40;;;;;;;3.89;98.89;100198.53;5033156;28;20466;-68
2024/02/25 07:46:17;;;;;;;5.40;2.00;;;;;;;3.91;98.58;100196.41;5033794;28;20439;-68
2024/02/25 07:48:45;;;;;;;4.60;2.40;;;;;;;3.96;97.85;100202.56;5033449;28;20852;-68
2024/02/25 07:51:13;;;;;;;3.70;1.50;;;;;;;4.00;97.09;100198.28;5033555;28;20443;-68
2024/02/25 07:53:39;;;;;;;2.90;1.20;;;;;;;4.00;96.09;100206.31;5033342;28;20558;-68
2024/02/25 07:56:06;;;;;;;1.73;0.53;;;;;;;4.09;96.47;100200.44;5033829;28;20451;-68
2024/02/25 07:58:33;;;;;;;2.73;1.33;;;;;;;4.15;95.91;100197.47;5033735;28;20446;-69
2024/02/25 08:01:00;;;;;;;2.90;1.03;;;;;;;4.19;95.79;100198.56;5033002;28;20467;-69
2024/02/25 08:03:26;;;;;;;2.80;1.27;;;;;;;4.31;96.29;100195.59;5033582;28;20462;-69
2024/02/25 08:05:53;;;;;;;3.17;1.87;;;;;;;4.52;95.75;100191.03;5033640;28;20530;-68
2024/02/25 08:08:21;;;;;;;1.83;0.60;;;;;;;4.60;95.00;100192.34;5032838;28;20487;-68
2024/02/25 08:10:47;;;;;;;2.57;1.30;;;;;;;4.75;95.31;100192.34;5033244;28;20443;-68
2024/02/25 08:13:14;;;;;;;2.67;1.20;;;;;;;4.90;94.79;100178.06;5033589;28;20550;-68
2024/02/25 08:15:41;;;;;;;2.13;0.87;;;;;;;5.02;94.19;100187.41;5032942;28;21012;-68
2024/02/25 08:18:08;;;;;;;3.27;1.13;;;;;;;5.13;93.42;100180.13;5032834;28;20927;-68
2024/02/25 08:20:34;;;;;;;3.00;1.40;;;;;;;5.17;93.68;100178.50;5033902;28;20505;-68
2024/02/25 08:23:01;;;;;;;2.33;1.17;;;;;;;5.25;93.18;100169.88;5032912;28;20467;-68
2024/02/25 08:25:29;;;;;;;4.77;2.00;;;;;;;5.31;92.77;100167.97;5033452;28;20439;-68
2024/02/25 08:27:55;;;;;;;2.33;0.87;;;;;;;5.38;92.33;100170.34;5033047;28;20860;-68
2024/02/25 08:30:23;;;;;;;2.10;0.90;;;;;;;5.41;92.36;100177.88;5033256;28;20452;-69
2024/02/25 08:32:51;;;;;;;1.87;0.70;;;;;;;5.43;92.06;100171.13;5032668;28;20983;-68
2024/02/25 08:35:18;;;;;;;2.80;1.30;;;;;;;5.50;91.30;100160.09;5032704;28;20447;-68
2024/02/25 08:37:46;;;;;;;2.40;0.93;;;;;;;5.59;90.58;100163.00;5032879;28;20500;-69
2024/02/25 08:40:13;;;;;;;2.73;1.10;;;;;;;5.68;90.31;100166.69;5033564;28;20451;-68
2024/02/25 08:42:41;;;;;;;3.10;1.30;;;;;;;5.73;89.96;100159.41;5032903;28;20477;-68
2024/02/25 08:45:08;;;;;;;1.90;0.77;;;;;;;5.79;89.69;100169.03;5032651;28;20927;-70
2024/02/25 08:47:36;;;;;;;2.57;1.00;;;;;;;5.89;88.86;100168.16;5032673;28;20962;-68
2024/02/25 08:50:03;;;;;;;2.67;1.27;;;;;;;6.00;87.89;100164.34;5034237;28;21093;-68
2024/02/25 08:52:29;;;;;;;2.90;1.20;;;;;;;6.11;86.62;100170.47;5036527;28;20467;-68
2024/02/25 08:54:56;;;;;;;3.80;1.63;;;;;;;6.22;86.66;100168.47;5036780;28;20542;-69
2024/02/25 08:57:24;;;;;;;4.03;1.53;;;;;;;6.31;85.52;100145.25;5036476;28;20439;-69
2024/02/25 08:59:51;;;;;;;2.30;1.00;;;;;;;6.38;85.81;100147.63;5036409;28;20863;-69
2024/02/25 09:02:18;;;;;;;2.77;1.50;;;;;;;6.50;85.01;100145.34;5036304;28;20462;-69
2024/02/25 09:04:45;;;;;;;2.77;1.20;;;;;;;6.56;85.41;100138.84;5036375;28;20538;-69
2024/02/25 09:07:11;;;;;;;2.93;1.00;;;;;;;6.70;84.73;100133.56;5035971;28;20479;-68
2024/02/25 09:09:38;;;;;;;3.13;1.13;;;;;;;6.83;83.03;100133.69;5036173;28;20482;-68
2024/02/25 09:12:05;;;;;;;2.33;1.10;;;;;;;6.99;82.21;100138.88;5036166;28;20467;-68
2024/02/25 09:14:32;;;;;;;2.00;0.80;;;;;;;7.06;82.27;100134.75;5035860;28;20467;-68
2024/02/25 09:17:00;;;;;;;2.63;1.13;;;;;;;7.09;82.80;100130.69;5036125;28;20451;-68
2024/02/25 09:19:26;;;;;;;2.20;1.03;;;;;;;7.20;82.10;100134.84;5036049;28;20435;-68
2024/02/25 09:21:53;;;;;;;4.10;1.40;;;;;;;7.25;82.23;100129.38;5035929;28;20534;-68
2024/02/25 09:24:19;;;;;;;4.70;1.10;;;;;;;7.38;81.73;100127.06;5036593;28;20475;-68
2024/02/25 09:26:48;;;;;;;2.73;1.17;;;;;;;7.57;80.09;100126.00;5035643;28;20526;-68
2024/02/25 09:29:15;;;;;;;3.20;1.30;;;;;;;7.76;78.45;100130.56;5036188;28;20489;-68
2024/02/25 09:31:42;;;;;;;3.80;1.10;;;;;;;7.84;78.74;100130.69;5036414;28;20449;-68
2024/02/25 09:34:11;;;;;;;2.27;1.10;;;;;;;7.92;77.58;100131.09;5036204;28;20482;-66
2024/02/25 09:36:37;;;;;;;2.60;1.17;;;;;;;7.98;77.03;100121.84;5036014;28;20443;-66
2024/02/25 09:39:04;;;;;;;2.97;1.20;;;;;;;8.06;76.44;100126.56;5035670;28;20526;-66
2024/02/25 09:41:35;;;;;;;2.13;0.73;;;;;;;8.19;75.50;100109.63;5035679;28;20489;-66
2024/02/25 09:44:03;;;;;;;2.83;1.10;;;;;;;8.31;75.23;100109.94;5035658;28;20436;-67
2024/02/25 09:46:31;;;;;;;3.90;1.07;;;;;;;8.38;74.66;100101.50;5035965;28;20526;-68
2024/02/25 09:48:59;;;;;;;4.10;1.23;;;;;;;8.46;74.69;100103.50;5035564;28;21003;-67
2024/02/25 09:51:27;;;;;;;2.70;1.00;;;;;;;8.58;74.45;100109.19;5035244;28;21034;-68
2024/02/25 09:53:56;;;;;;;3.20;1.07;;;;;;;8.73;72.10;100108.09;5035116;28;21006;-68
2024/02/25 09:56:23;;;;;;;2.20;0.90;;;;;;;8.74;72.34;100111.59;5035984;28;20443;-68
2024/02/25 09:58:50;;;;;;;2.63;1.10;;;;;;;8.86;71.67;100113.81;5036048;28;20450;-68
2024/02/25 10:01:17;;;;;;;5.50;1.40;;;;;;;9.00;70.22;100109.19;5034181;28;20447;-68
2024/02/25 10:03:43;;;;;;;4.07;1.37;;;;;;;9.12;69.86;100111.34;5035580;28;20465;-68
2024/02/25 10:06:11;;;;;;;2.83;1.10;;;;;;;9.23;69.30;100110.06;5035205;28;20435;-69
2024/02/25 10:08:49;;;;;;;2.90;1.30;;;;;;;9.29;70.04;100092.63;5034758;28;20435;-68
2024/02/25 10:11:16;;;;;;;2.30;1.10;;;;;;;9.39;69.87;100102.41;5035129;28;20457;-68
2024/02/25 10:13:45;;;;;;;2.67;0.97;;;;;;;9.45;69.58;100101.97;5035252;28;20989;-68
2024/02/25 10:16:16;;;;;;;2.73;0.90;;;;;;;9.64;67.67;100101.03;5034711;28;20446;-68
2024/02/25 10:18:43;;;;;;;3.87;1.03;;;;;;;9.68;68.03;100099.31;5034978;28;20440;-68
2024/02/25 10:21:10;;;;;;;2.10;0.93;;;;;;;9.73;68.00;100089.16;5034911;28;20446;-68
2024/02/25 10:23:37;;;;;;;2.60;1.00;;;;;;;9.83;68.22;100094.34;5034517;28;20491;-68
2024/02/25 10:26:15;;;;;;;2.40;1.00;;;;;;;9.87;68.03;100080.97;5035051;28;20519;-68
2024/02/25 10:28:42;;;;;;;2.00;0.80;;;;;;;9.99;67.34;100091.25;5034296;28;20961;-68
2024/02/25 10:31:10;;;;;;;4.07;1.63;;;;;;;10.15;65.55;100081.63;5034702;28;20454;-68
2024/02/25 10:33:37;;;;;;;5.50;1.20;;;;;;;10.22;65.41;100070.34;5034594;28;20452;-68
2024/02/25 10:36:08;;;;;;;4.47;1.10;;;;;;;10.23;66.09;100072.75;5034656;28;20525;-68
2024/02/25 10:38:36;;;;;;;2.73;1.10;;;;;;;10.23;66.27;100078.19;5034834;28;20428;-68
2024/02/25 10:41:04;;;;;;;3.30;1.17;;;;;;;10.34;62.92;100067.91;5034755;28;20497;-68
2024/02/25 10:43:34;;;;;;;2.10;0.80;;;;;;;10.43;62.20;100059.81;5034560;28;20517;-68
2024/02/25 10:46:05;;;;;;;2.10;0.73;;;;;;;10.43;63.54;100051.69;5034496;28;20435;-69
2024/02/25 10:48:33;;;;;;;2.20;0.93;;;;;;;10.52;63.09;100052.50;5034310;28;20510;-67
2024/02/25 10:51:00;;;;;;;2.20;0.80;;;;;;;10.63;61.64;100048.41;5033977;28;20479;-68
2024/02/25 10:53:29;;;;;;;2.10;0.70;;;;;;;10.70;60.64;100051.44;5034135;28;20550;-68
2024/02/25 10:55:58;;;;;;;1.93;0.83;;;;;;;10.69;61.78;100047.16;5034391;28;20430;-68
2024/02/25 10:58:26;;;;;;;4.33;0.60;;;;;;;10.71;60.15;100044.91;5034897;28;20442;-68
2024/02/25 11:00:56;;;;;;;2.23;0.60;;;;;;;10.86;58.87;100035.56;5034161;28;20445;-68
2024/02/25 11:03:24;;;;;;;2.20;0.70;;;;;;;11.01;58.53;100043.22;5034080;28;20467;-68
2024/02/25 11:05:51;;;;;;;2.10;0.60;;;;;;;11.15;58.52;100029.53;5034049;28;20670;-68
2024/02/25 11:08:28;;;;;;;4.73;1.10;;;;;;;11.25;58.42;100037.34;5034174;28;20447;-68
2024/02/25 11:10:57;;;;;;;2.40;0.63;;;;;;;11.37;58.01;100031.28;5033940;28;20492;-68
2024/02/25 11:13:24;;;;;;;2.37;0.97;;;;;;;11.48;57.33;100026.34;5033953;28;20463;-68
2024/02/25 11:15:51;;;;;;;2.07;0.73;;;;;;;11.68;55.39;100033.78;5034009;28;20447;-68
2024/02/25 11:18:26;;;;;;;3.30;0.83;;;;;;;11.88;54.38;100040.50;5033570;28;20811;-68
2024/02/25 11:21:04;;;;;;;2.40;0.70;;;;;;;12.02;55.13;100026.72;5033785;28;20427;-68
2024/02/25 11:23:40;;;;;;;2.60;0.90;;;;;;;12.13;55.13;100017.13;5033761;28;20554;-68
2024/02/25 11:26:37;;;;;;;1.80;0.60;;;;;;;12.38;52.63;100032.50;5034384;28;20498;-68
2024/02/25 11:29:15;;;;;;;1.83;0.60;;;;;;;12.55;50.36;100019.97;5034016;28;20489;-68
2024/02/25 11:31:52;;;;;;;3.50;0.73;;;;;;;12.77;49.89;100016.16;5033670;28;20947;-68
2024/02/25 11:34:24;;;;;;;2.50;0.80;;;;;;;12.89;49.97;100013.53;5033277;28;20423;-68